sensor_id;sensor_type;location;lat;lon;timestamp;P1;durP1;ratioP1;P2;durP2;ratioP2
67344;SDS011;54230;52.402;6.276;2022-09-09T00:00:00;6.9;;;2.7;;
67344;SDS011;54230;52.402;6.276;2022-09-09T00:05:04;5.5;;;2.6;;
67344;SDS011;54230;52.402;6.276;2022-09-09T00:10:00;6.8;;;2.9;;
67344;SDS011;54230;52.402;6.276;2022-09-09T00:15:01;5.9;;;2.6;;
67344;SDS011;54230;52.402;6.276;2022-09-09T00:20:01;6.1;;;2.4;;
67344;SDS011;54230;52.402;6.276;2022-09-09T00:25:02;5.8;;;2.3;;
67344;SDS011;54230;52.402;6.276;2022-09-09T00:30:02;5.4;;;2.3;;
67344;SDS011;54230;52.402;6.276;2022-09-09T00:35:02;6.2;;;2.5;;
67344;SDS011;54230;52.402;6.276;2022-09-09T00:40:00;5.8;;;2.7;;
67344;SDS011;54230;52.402;6.276;2022-09-09T00:45:01;7.0;;;3.0;;
67344;SDS011;54230;52.402;6.276;2022-09-09T00:50:00;5.9;;;2.8;;
67344;SDS011;54230;52.402;6.276;2022-09-09T00:55:03;6.0;;;3.0;;
67344;SDS011;54230;52.402;6.276;2022-09-09T01:00:15;6.0;;;3.1;;
67344;SDS011;54230;52.402;6.276;2022-09-09T01:05:01;5.6;;;2.7;;
67344;SDS011;54230;52.402;6.276;2022-09-09T01:10:00;5.5;;;2.5;;
67344;SDS011;54230;52.402;6.276;2022-09-09T01:15:03;4.0;;;2.1;;
67344;SDS011;54230;52.402;6.276;2022-09-09T01:20:04;4.9;;;2.3;;
67344;SDS011;54230;52.402;6.276;2022-09-09T01:25:07;4.3;;;2.0;;
67344;SDS011;54230;52.402;6.276;2022-09-09T01:30:00;4.0;;;2.1;;
67344;SDS011;54230;52.402;6.276;2022-09-09T01:35:00;5.6;;;2.0;;
67344;SDS011;54230;52.402;6.276;2022-09-09T01:40:00;4.5;;;2.2;;
67344;SDS011;54230;52.402;6.276;2022-09-09T01:45:00;4.6;;;2.0;;
67344;SDS011;54230;52.402;6.276;2022-09-09T01:50:00;4.5;;;2.1;;
67344;SDS011;54230;52.402;6.276;2022-09-09T01:55:00;5.1;;;2.2;;
67344;SDS011;54230;52.402;6.276;2022-09-09T02:00:01;4.4;;;2.3;;
67344;SDS011;54230;52.402;6.276;2022-09-09T02:05:01;4.8;;;2.2;;
67344;SDS011;54230;52.402;6.276;2022-09-09T02:10:01;5.0;;;2.5;;
67344;SDS011;54230;52.402;6.276;2022-09-09T02:15:02;5.3;;;2.5;;
67344;SDS011;54230;52.402;6.276;2022-09-09T02:20:02;7.3;;;2.6;;
67344;SDS011;54230;52.402;6.276;2022-09-09T02:25:00;5.9;;;3.0;;
67344;SDS011;54230;52.402;6.276;2022-09-09T02:30:00;7.6;;;3.5;;
67344;SDS011;54230;52.402;6.276;2022-09-09T02:35:00;7.4;;;3.6;;
67344;SDS011;54230;52.402;6.276;2022-09-09T02:40:00;8.4;;;4.1;;
67344;SDS011;54230;52.402;6.276;2022-09-09T02:45:00;8.3;;;4.3;;
67344;SDS011;54230;52.402;6.276;2022-09-09T02:50:03;8.7;;;4.8;;
67344;SDS011;54230;52.402;6.276;2022-09-09T02:55:02;7.9;;;4.7;;
67344;SDS011;54230;52.402;6.276;2022-09-09T03:00:00;9.4;;;5.1;;
67344;SDS011;54230;52.402;6.276;2022-09-09T03:05:00;8.9;;;5.3;;
67344;SDS011;54230;52.402;6.276;2022-09-09T03:10:00;9.3;;;5.5;;
67344;SDS011;54230;52.402;6.276;2022-09-09T03:15:00;9.8;;;5.7;;
67344;SDS011;54230;52.402;6.276;2022-09-09T03:20:00;9.3;;;5.8;;
67344;SDS011;54230;52.402;6.276;2022-09-09T03:25:00;10.4;;;5.1;;
67344;SDS011;54230;52.402;6.276;2022-09-09T03:30:00;10.2;;;5.3;;
67344;SDS011;54230;52.402;6.276;2022-09-09T03:35:00;8.4;;;5.2;;
67344;SDS011;54230;52.402;6.276;2022-09-09T03:40:00;9.1;;;4.9;;
67344;SDS011;54230;52.402;6.276;2022-09-09T03:45:00;8.6;;;5.1;;
67344;SDS011;54230;52.402;6.276;2022-09-09T03:50:00;8.1;;;4.7;;
67344;SDS011;54230;52.402;6.276;2022-09-09T03:55:00;8.0;;;4.6;;
67344;SDS011;54230;52.402;6.276;2022-09-09T04:00:00;8.5;;;4.2;;
67344;SDS011;54230;52.402;6.276;2022-09-09T04:05:00;7.1;;;4.3;;
67344;SDS011;54230;52.402;6.276;2022-09-09T04:10:00;8.0;;;4.4;;
67344;SDS011;54230;52.402;6.276;2022-09-09T04:15:00;8.0;;;4.1;;
67344;SDS011;54230;52.402;6.276;2022-09-09T04:20:00;9.8;;;4.4;;
67344;SDS011;54230;52.402;6.276;2022-09-09T04:25:00;7.8;;;4.3;;
67344;SDS011;54230;52.402;6.276;2022-09-09T04:30:00;7.5;;;4.5;;
67344;SDS011;54230;52.402;6.276;2022-09-09T04:35:00;9.1;;;4.6;;
67344;SDS011;54230;52.402;6.276;2022-09-09T04:40:00;7.9;;;4.7;;
67344;SDS011;54230;52.402;6.276;2022-09-09T04:45:00;7.7;;;4.9;;
67344;SDS011;54230;52.402;6.276;2022-09-09T04:50:00;10.8;;;5.0;;
67344;SDS011;54230;52.402;6.276;2022-09-09T04:55:00;8.9;;;4.9;;
67344;SDS011;54230;52.402;6.276;2022-09-09T05:00:00;8.7;;;4.9;;
67344;SDS011;54230;52.402;6.276;2022-09-09T05:05:00;8.7;;;4.9;;
67344;SDS011;54230;52.402;6.276;2022-09-09T05:10:00;9.5;;;4.7;;
67344;SDS011;54230;52.402;6.276;2022-09-09T05:15:00;9.9;;;5.3;;
67344;SDS011;54230;52.402;6.276;2022-09-09T05:20:00;12.5;;;5.3;;
67344;SDS011;54230;52.402;6.276;2022-09-09T05:25:00;9.0;;;4.8;;
67344;SDS011;54230;52.402;6.276;2022-09-09T05:30:00;9.6;;;5.1;;
67344;SDS011;54230;52.402;6.276;2022-09-09T05:35:00;10.0;;;4.7;;
67344;SDS011;54230;52.402;6.276;2022-09-09T05:40:00;10.6;;;5.1;;
67344;SDS011;54230;52.402;6.276;2022-09-09T05:45:00;8.1;;;4.5;;
67344;SDS011;54230;52.402;6.276;2022-09-09T05:50:00;14.6;;;5.0;;
67344;SDS011;54230;52.402;6.276;2022-09-09T05:55:00;7.8;;;4.3;;
67344;SDS011;54230;52.402;6.276;2022-09-09T06:00:00;10.8;;;4.8;;
67344;SDS011;54230;52.402;6.276;2022-09-09T06:05:00;10.0;;;4.6;;
67344;SDS011;54230;52.402;6.276;2022-09-09T06:10:00;14.7;;;4.7;;
67344;SDS011;54230;52.402;6.276;2022-09-09T06:15:00;11.7;;;4.9;;
67344;SDS011;54230;52.402;6.276;2022-09-09T06:20:00;10.5;;;4.5;;
67344;SDS011;54230;52.402;6.276;2022-09-09T06:25:00;11.4;;;4.7;;
67344;SDS011;54230;52.402;6.276;2022-09-09T06:30:00;10.3;;;4.8;;
67344;SDS011;54230;52.402;6.276;2022-09-09T06:35:00;10.4;;;5.1;;
67344;SDS011;54230;52.402;6.276;2022-09-09T06:40:00;10.6;;;4.4;;
67344;SDS011;54230;52.402;6.276;2022-09-09T06:45:00;9.7;;;4.8;;
67344;SDS011;54230;52.402;6.276;2022-09-09T06:50:00;9.2;;;4.7;;
67344;SDS011;54230;52.402;6.276;2022-09-09T06:55:00;10.8;;;4.5;;
67344;SDS011;54230;52.402;6.276;2022-09-09T07:00:00;11.5;;;4.6;;
67344;SDS011;54230;52.402;6.276;2022-09-09T07:05:00;12.5;;;4.5;;
67344;SDS011;54230;52.402;6.276;2022-09-09T07:10:00;10.5;;;4.7;;
67344;SDS011;54230;52.402;6.276;2022-09-09T07:15:00;10.8;;;4.6;;
67344;SDS011;54230;52.402;6.276;2022-09-09T07:20:00;9.7;;;4.3;;
67344;SDS011;54230;52.402;6.276;2022-09-09T07:25:00;8.1;;;4.1;;
67344;SDS011;54230;52.402;6.276;2022-09-09T09:15:00;9.1;;;2.7;;
67344;SDS011;54230;52.402;6.276;2022-09-09T09:20:00;8.7;;;2.2;;
67344;SDS011;54230;52.402;6.276;2022-09-09T09:25:01;11.6;;;2.7;;
67344;SDS011;54230;52.402;6.276;2022-09-09T09:30:00;12.5;;;2.3;;
67344;SDS011;54230;52.402;6.276;2022-09-09T09:35:00;9.7;;;2.1;;
67344;SDS011;54230;52.402;6.276;2022-09-09T09:40:07;7.9;;;2.0;;
67344;SDS011;54230;52.402;6.276;2022-09-09T09:45:06;10.2;;;2.2;;
67344;SDS011;54230;52.402;6.276;2022-09-09T09:50:00;6.8;;;1.9;;
67344;SDS011;54230;52.402;6.276;2022-09-09T09:55:01;6.9;;;1.9;;
67344;SDS011;54230;52.402;6.276;2022-09-09T10:00:00;9.6;;;2.3;;
67344;SDS011;54230;52.402;6.276;2022-09-09T10:05:00;6.1;;;1.7;;
67344;SDS011;54230;52.402;6.276;2022-09-09T10:10:00;9.5;;;2.0;;
67344;SDS011;54230;52.402;6.276;2022-09-09T10:15:01;8.6;;;2.1;;
67344;SDS011;54230;52.402;6.276;2022-09-09T10:20:04;9.4;;;1.9;;
67344;SDS011;54230;52.402;6.276;2022-09-09T10:30:01;9.3;;;2.0;;
67344;SDS011;54230;52.402;6.276;2022-09-09T10:35:02;9.0;;;2.0;;
67344;SDS011;54230;52.402;6.276;2022-09-09T10:40:01;8.2;;;2.2;;
67344;SDS011;54230;52.402;6.276;2022-09-09T10:45:02;9.2;;;2.1;;
67344;SDS011;54230;52.402;6.276;2022-09-09T10:50:06;7.0;;;1.8;;
67344;SDS011;54230;52.402;6.276;2022-09-09T10:55:00;7.2;;;2.1;;
67344;SDS011;54230;52.402;6.276;2022-09-09T11:00:01;9.5;;;2.2;;
67344;SDS011;54230;52.402;6.276;2022-09-09T11:05:00;9.7;;;2.2;;
67344;SDS011;54230;52.402;6.276;2022-09-09T11:10:01;8.5;;;1.8;;
67344;SDS011;54230;52.402;6.276;2022-09-09T11:15:01;8.3;;;1.8;;
67344;SDS011;54230;52.402;6.276;2022-09-09T11:20:00;8.2;;;2.0;;
67344;SDS011;54230;52.402;6.276;2022-09-09T11:25:01;5.6;;;1.4;;
67344;SDS011;54230;52.402;6.276;2022-09-09T11:35:02;6.4;;;1.6;;
67344;SDS011;54230;52.402;6.276;2022-09-09T11:40:04;8.1;;;1.3;;
67344;SDS011;54230;52.402;6.276;2022-09-09T11:45:08;7.1;;;1.6;;
67344;SDS011;54230;52.402;6.276;2022-09-09T11:55:00;8.7;;;1.4;;
67344;SDS011;54230;52.402;6.276;2022-09-09T12:00:00;7.3;;;1.7;;
67344;SDS011;54230;52.402;6.276;2022-09-09T12:05:00;7.1;;;1.7;;
67344;SDS011;54230;52.402;6.276;2022-09-09T12:10:02;7.6;;;1.7;;
67344;SDS011;54230;52.402;6.276;2022-09-09T12:15:02;5.7;;;1.7;;
67344;SDS011;54230;52.402;6.276;2022-09-09T12:20:00;9.7;;;1.9;;
67344;SDS011;54230;52.402;6.276;2022-09-09T12:25:00;5.8;;;1.7;;
67344;SDS011;54230;52.402;6.276;2022-09-09T12:30:01;7.3;;;2.0;;
67344;SDS011;54230;52.402;6.276;2022-09-09T12:35:00;7.1;;;1.8;;
67344;SDS011;54230;52.402;6.276;2022-09-09T12:40:00;7.6;;;2.0;;
67344;SDS011;54230;52.402;6.276;2022-09-09T12:45:00;5.3;;;1.8;;
67344;SDS011;54230;52.402;6.276;2022-09-09T12:50:00;5.6;;;2.0;;
67344;SDS011;54230;52.402;6.276;2022-09-09T12:55:00;7.1;;;1.8;;
67344;SDS011;54230;52.402;6.276;2022-09-09T13:00:04;5.7;;;1.8;;
67344;SDS011;54230;52.402;6.276;2022-09-09T13:05:06;5.1;;;1.5;;
67344;SDS011;54230;52.402;6.276;2022-09-09T13:10:00;5.1;;;1.5;;
67344;SDS011;54230;52.402;6.276;2022-09-09T13:15:00;4.8;;;1.4;;
67344;SDS011;54230;52.402;6.276;2022-09-09T13:20:00;4.4;;;1.4;;
67344;SDS011;54230;52.402;6.276;2022-09-09T13:25:00;4.9;;;1.4;;
67344;SDS011;54230;52.402;6.276;2022-09-09T13:30:00;4.8;;;1.4;;
67344;SDS011;54230;52.402;6.276;2022-09-09T13:35:00;4.9;;;1.4;;
67344;SDS011;54230;52.402;6.276;2022-09-09T13:40:00;4.9;;;1.2;;
67344;SDS011;54230;52.402;6.276;2022-09-09T13:45:00;5.6;;;1.3;;
67344;SDS011;54230;52.402;6.276;2022-09-09T13:50:09;5.3;;;1.3;;
67344;SDS011;54230;52.402;6.276;2022-09-09T13:55:00;6.0;;;1.3;;
67344;SDS011;54230;52.402;6.276;2022-09-09T14:00:00;4.4;;;1.3;;
67344;SDS011;54230;52.402;6.276;2022-09-09T14:05:00;4.1;;;1.5;;
67344;SDS011;54230;52.402;6.276;2022-09-09T14:10:00;6.5;;;1.5;;
67344;SDS011;54230;52.402;6.276;2022-09-09T14:15:00;5.8;;;1.4;;
67344;SDS011;54230;52.402;6.276;2022-09-09T14:20:00;3.9;;;1.4;;
67344;SDS011;54230;52.402;6.276;2022-09-09T14:25:00;5.2;;;1.6;;
67344;SDS011;54230;52.402;6.276;2022-09-09T14:30:00;4.4;;;1.6;;
67344;SDS011;54230;52.402;6.276;2022-09-09T14:35:00;7.5;;;1.9;;
67344;SDS011;54230;52.402;6.276;2022-09-09T14:40:00;4.3;;;1.8;;
67344;SDS011;54230;52.402;6.276;2022-09-09T14:45:00;4.6;;;1.8;;
67344;SDS011;54230;52.402;6.276;2022-09-09T14:50:00;6.7;;;2.0;;
67344;SDS011;54230;52.402;6.276;2022-09-09T14:55:00;4.2;;;1.9;;
67344;SDS011;54230;52.402;6.276;2022-09-09T15:00:00;5.5;;;1.9;;
67344;SDS011;54230;52.402;6.276;2022-09-09T15:05:00;5.0;;;1.9;;
67344;SDS011;54230;52.402;6.276;2022-09-09T15:10:00;5.6;;;1.9;;
67344;SDS011;54230;52.402;6.276;2022-09-09T15:15:00;5.4;;;1.8;;
67344;SDS011;54230;52.402;6.276;2022-09-09T15:20:00;6.6;;;2.0;;
67344;SDS011;54230;52.402;6.276;2022-09-09T15:25:00;5.9;;;1.8;;
67344;SDS011;54230;52.402;6.276;2022-09-09T15:30:00;5.5;;;1.5;;
67344;SDS011;54230;52.402;6.276;2022-09-09T15:35:00;5.9;;;1.7;;
67344;SDS011;54230;52.402;6.276;2022-09-09T15:40:00;3.7;;;1.8;;
67344;SDS011;54230;52.402;6.276;2022-09-09T15:45:00;4.0;;;1.7;;
67344;SDS011;54230;52.402;6.276;2022-09-09T15:50:00;5.4;;;1.8;;
67344;SDS011;54230;52.402;6.276;2022-09-09T15:55:00;7.0;;;2.5;;
67344;SDS011;54230;52.402;6.276;2022-09-09T16:00:00;4.2;;;1.7;;
67344;SDS011;54230;52.402;6.276;2022-09-09T16:05:00;7.4;;;2.0;;
67344;SDS011;54230;52.402;6.276;2022-09-09T16:10:00;5.5;;;1.8;;
67344;SDS011;54230;52.402;6.276;2022-09-09T16:15:00;5.7;;;1.9;;
67344;SDS011;54230;52.402;6.276;2022-09-09T16:20:00;6.7;;;2.6;;
67344;SDS011;54230;52.402;6.276;2022-09-09T16:25:00;5.5;;;1.9;;
67344;SDS011;54230;52.402;6.276;2022-09-09T16:30:00;7.0;;;2.6;;
67344;SDS011;54230;52.402;6.276;2022-09-09T16:35:00;5.0;;;2.0;;
67344;SDS011;54230;52.402;6.276;2022-09-09T16:40:00;7.2;;;3.6;;
67344;SDS011;54230;52.402;6.276;2022-09-09T16:45:00;6.0;;;2.4;;
67344;SDS011;54230;52.402;6.276;2022-09-09T16:50:00;6.0;;;2.5;;
67344;SDS011;54230;52.402;6.276;2022-09-09T16:55:00;8.3;;;3.5;;
67344;SDS011;54230;52.402;6.276;2022-09-09T17:00:00;6.7;;;2.2;;
67344;SDS011;54230;52.402;6.276;2022-09-09T17:05:00;6.9;;;2.3;;
67344;SDS011;54230;52.402;6.276;2022-09-09T17:10:00;6.3;;;2.0;;
67344;SDS011;54230;52.402;6.276;2022-09-09T17:15:00;20.0;;;6.6;;
67344;SDS011;54230;52.402;6.276;2022-09-09T17:20:00;7.2;;;2.5;;
67344;SDS011;54230;52.402;6.276;2022-09-09T17:25:00;5.8;;;1.9;;
67344;SDS011;54230;52.402;6.276;2022-09-09T17:30:00;6.8;;;2.0;;
67344;SDS011;54230;52.402;6.276;2022-09-09T17:35:00;6.2;;;2.4;;
67344;SDS011;54230;52.402;6.276;2022-09-09T17:40:01;7.8;;;2.5;;
67344;SDS011;54230;52.402;6.276;2022-09-09T17:45:00;7.0;;;3.0;;
67344;SDS011;54230;52.402;6.276;2022-09-09T17:50:00;9.2;;;3.6;;
67344;SDS011;54230;52.402;6.276;2022-09-09T17:55:00;7.7;;;2.4;;
67344;SDS011;54230;52.402;6.276;2022-09-09T18:00:00;5.5;;;2.0;;
67344;SDS011;54230;52.402;6.276;2022-09-09T18:05:00;5.2;;;2.1;;
67344;SDS011;54230;52.402;6.276;2022-09-09T18:10:00;5.0;;;2.2;;
67344;SDS011;54230;52.402;6.276;2022-09-09T18:15:00;4.8;;;2.4;;
67344;SDS011;54230;52.402;6.276;2022-09-09T18:20:00;6.5;;;2.4;;
67344;SDS011;54230;52.402;6.276;2022-09-09T18:25:00;5.8;;;2.6;;
67344;SDS011;54230;52.402;6.276;2022-09-09T18:30:00;5.1;;;2.3;;
67344;SDS011;54230;52.402;6.276;2022-09-09T18:35:00;5.1;;;2.0;;
67344;SDS011;54230;52.402;6.276;2022-09-09T18:40:00;5.2;;;1.8;;
67344;SDS011;54230;52.402;6.276;2022-09-09T18:45:00;4.7;;;1.9;;
67344;SDS011;54230;52.402;6.276;2022-09-09T18:50:00;3.3;;;1.4;;
67344;SDS011;54230;52.402;6.276;2022-09-09T18:55:00;3.7;;;1.8;;
67344;SDS011;54230;52.402;6.276;2022-09-09T19:00:00;4.1;;;1.5;;
67344;SDS011;54230;52.402;6.276;2022-09-09T19:05:00;2.9;;;1.6;;
67344;SDS011;54230;52.402;6.276;2022-09-09T19:10:00;3.5;;;1.7;;
67344;SDS011;54230;52.402;6.276;2022-09-09T19:15:00;5.8;;;3.2;;
67344;SDS011;54230;52.402;6.276;2022-09-09T19:20:00;5.2;;;2.1;;
67344;SDS011;54230;52.402;6.276;2022-09-09T19:25:00;5.0;;;2.1;;
67344;SDS011;54230;52.402;6.276;2022-09-09T19:30:00;4.8;;;2.3;;
67344;SDS011;54230;52.402;6.276;2022-09-09T19:35:00;6.6;;;2.4;;
67344;SDS011;54230;52.402;6.276;2022-09-09T19:40:00;5.7;;;2.6;;
67344;SDS011;54230;52.402;6.276;2022-09-09T19:45:00;5.4;;;3.0;;
67344;SDS011;54230;52.402;6.276;2022-09-09T19:50:00;6.3;;;3.0;;
67344;SDS011;54230;52.402;6.276;2022-09-09T19:55:00;5.9;;;3.0;;
67344;SDS011;54230;52.402;6.276;2022-09-09T20:00:00;8.6;;;3.0;;
67344;SDS011;54230;52.402;6.276;2022-09-09T20:05:00;7.0;;;3.3;;
67344;SDS011;54230;52.402;6.276;2022-09-09T20:10:00;6.2;;;3.1;;
67344;SDS011;54230;52.402;6.276;2022-09-09T20:15:00;6.9;;;3.2;;
67344;SDS011;54230;52.402;6.276;2022-09-09T20:20:00;4.8;;;3.3;;
67344;SDS011;54230;52.402;6.276;2022-09-09T20:25:00;6.5;;;3.3;;
67344;SDS011;54230;52.402;6.276;2022-09-09T20:30:00;5.2;;;3.4;;
67344;SDS011;54230;52.402;6.276;2022-09-09T20:35:00;6.3;;;3.4;;
67344;SDS011;54230;52.402;6.276;2022-09-09T20:40:00;5.0;;;3.2;;
67344;SDS011;54230;52.402;6.276;2022-09-09T20:45:00;5.4;;;3.5;;
67344;SDS011;54230;52.402;6.276;2022-09-09T20:50:00;6.9;;;3.9;;
67344;SDS011;54230;52.402;6.276;2022-09-09T20:55:00;6.8;;;4.0;;
67344;SDS011;54230;52.402;6.276;2022-09-09T21:00:00;7.1;;;4.0;;
67344;SDS011;54230;52.402;6.276;2022-09-09T21:05:00;6.9;;;4.2;;
67344;SDS011;54230;52.402;6.276;2022-09-09T21:10:00;7.6;;;4.6;;
67344;SDS011;54230;52.402;6.276;2022-09-09T21:15:00;7.6;;;4.9;;
67344;SDS011;54230;52.402;6.276;2022-09-09T21:20:00;6.8;;;4.4;;
67344;SDS011;54230;52.402;6.276;2022-09-09T21:25:00;8.9;;;4.8;;
67344;SDS011;54230;52.402;6.276;2022-09-09T21:30:00;8.3;;;5.0;;
67344;SDS011;54230;52.402;6.276;2022-09-09T21:35:00;8.6;;;5.6;;
67344;SDS011;54230;52.402;6.276;2022-09-09T21:40:00;10.1;;;5.6;;
67344;SDS011;54230;52.402;6.276;2022-09-09T21:45:00;8.4;;;5.1;;
67344;SDS011;54230;52.402;6.276;2022-09-09T21:50:00;10.3;;;5.4;;
67344;SDS011;54230;52.402;6.276;2022-09-09T21:55:00;8.3;;;5.7;;
67344;SDS011;54230;52.402;6.276;2022-09-09T22:00:00;9.5;;;5.6;;
67344;SDS011;54230;52.402;6.276;2022-09-09T22:05:00;9.4;;;6.0;;
67344;SDS011;54230;52.402;6.276;2022-09-09T22:10:00;9.2;;;5.9;;
67344;SDS011;54230;52.402;6.276;2022-09-09T22:15:00;9.6;;;6.7;;
67344;SDS011;54230;52.402;6.276;2022-09-09T22:20:00;10.3;;;6.4;;
67344;SDS011;54230;52.402;6.276;2022-09-09T22:25:00;11.7;;;6.6;;
67344;SDS011;54230;52.402;6.276;2022-09-09T22:30:00;9.7;;;6.7;;
67344;SDS011;54230;52.402;6.276;2022-09-09T22:35:00;10.6;;;6.5;;
67344;SDS011;54230;52.402;6.276;2022-09-09T22:40:00;10.6;;;7.0;;
67344;SDS011;54230;52.402;6.276;2022-09-09T22:45:00;11.8;;;7.2;;
67344;SDS011;54230;52.402;6.276;2022-09-09T22:50:00;11.8;;;7.3;;
67344;SDS011;54230;52.402;6.276;2022-09-09T22:55:00;10.8;;;7.7;;
67344;SDS011;54230;52.402;6.276;2022-09-09T23:00:00;12.6;;;7.9;;
67344;SDS011;54230;52.402;6.276;2022-09-09T23:05:00;12.6;;;8.1;;
67344;SDS011;54230;52.402;6.276;2022-09-09T23:10:00;13.1;;;8.6;;
67344;SDS011;54230;52.402;6.276;2022-09-09T23:15:00;14.8;;;8.6;;
67344;SDS011;54230;52.402;6.276;2022-09-09T23:20:00;13.8;;;9.3;;
67344;SDS011;54230;52.402;6.276;2022-09-09T23:25:00;14.3;;;9.1;;
67344;SDS011;54230;52.402;6.276;2022-09-09T23:30:00;13.6;;;8.8;;
67344;SDS011;54230;52.402;6.276;2022-09-09T23:35:00;14.3;;;9.2;;
67344;SDS011;54230;52.402;6.276;2022-09-09T23:40:00;12.5;;;8.6;;
67344;SDS011;54230;52.402;6.276;2022-09-09T23:45:00;14.0;;;9.4;;
67344;SDS011;54230;52.402;6.276;2022-09-09T23:50:00;14.6;;;9.1;;
67344;SDS011;54230;52.402;6.276;2022-09-09T23:55:00;13.7;;;9.5;;
